sensor_id;sensor_type;location;lat;lon;timestamp;P1;durP1;ratioP1;P2;durP2;ratioP2
55190;SDS011;41070;50.360;18.742;2024-02-04T00:38:51;4.40;;;3.70;;
55190;SDS011;41070;50.360;18.742;2024-02-04T00:41:18;6.20;;;3.50;;
55190;SDS011;41070;50.360;18.742;2024-02-04T00:43:45;5.50;;;3.50;;
55190;SDS011;41070;50.360;18.742;2024-02-04T00:46:12;4.70;;;3.30;;
55190;SDS011;41070;50.360;18.742;2024-02-04T00:48:39;4.30;;;3.50;;
55190;SDS011;41070;50.360;18.742;2024-02-04T00:51:08;4.00;;;3.00;;
55190;SDS011;41070;50.360;18.742;2024-02-04T00:53:35;4.50;;;3.30;;
55190;SDS011;41070;50.360;18.742;2024-02-04T00:56:02;5.90;;;3.80;;
55190;SDS011;41070;50.360;18.742;2024-02-04T00:58:35;5.10;;;3.90;;
55190;SDS011;41070;50.360;18.742;2024-02-04T01:01:02;4.50;;;3.80;;
55190;SDS011;41070;50.360;18.742;2024-02-04T01:03:28;4.70;;;4.00;;
55190;SDS011;41070;50.360;18.742;2024-02-04T01:05:55;5.90;;;4.10;;
55190;SDS011;41070;50.360;18.742;2024-02-04T01:08:22;3.70;;;2.80;;
55190;SDS011;41070;50.360;18.742;2024-02-04T01:10:49;4.10;;;3.30;;
55190;SDS011;41070;50.360;18.742;2024-02-04T01:13:17;4.00;;;3.30;;
55190;SDS011;41070;50.360;18.742;2024-02-04T01:15:45;2.90;;;2.50;;
55190;SDS011;41070;50.360;18.742;2024-02-04T01:18:12;2.50;;;2.30;;
55190;SDS011;41070;50.360;18.742;2024-02-04T01:20:39;3.40;;;2.50;;
55190;SDS011;41070;50.360;18.742;2024-02-04T01:23:05;3.50;;;1.80;;
55190;SDS011;41070;50.360;18.742;2024-02-04T01:25:34;2.70;;;2.00;;
55190;SDS011;41070;50.360;18.742;2024-02-04T01:28:02;2.30;;;2.10;;
55190;SDS011;41070;50.360;18.742;2024-02-04T01:30:28;2.30;;;1.80;;
55190;SDS011;41070;50.360;18.742;2024-02-04T01:32:57;2.00;;;1.70;;
55190;SDS011;41070;50.360;18.742;2024-02-04T01:35:24;2.20;;;2.00;;
55190;SDS011;41070;50.360;18.742;2024-02-04T01:37:54;1.50;;;1.40;;
55190;SDS011;41070;50.360;18.742;2024-02-04T01:40:20;2.70;;;1.80;;
55190;SDS011;41070;50.360;18.742;2024-02-04T01:42:48;2.30;;;1.90;;
55190;SDS011;41070;50.360;18.742;2024-02-04T01:45:14;2.80;;;2.00;;
55190;SDS011;41070;50.360;18.742;2024-02-04T01:47:42;2.50;;;2.00;;
55190;SDS011;41070;50.360;18.742;2024-02-04T01:50:09;3.40;;;2.60;;
55190;SDS011;41070;50.360;18.742;2024-02-04T01:52:37;3.80;;;2.30;;
55190;SDS011;41070;50.360;18.742;2024-02-04T01:55:06;3.40;;;2.10;;
55190;SDS011;41070;50.360;18.742;2024-02-04T01:57:33;2.40;;;1.90;;
55190;SDS011;41070;50.360;18.742;2024-02-04T02:00:04;1.60;;;1.50;;
55190;SDS011;41070;50.360;18.742;2024-02-04T02:02:32;1.70;;;1.10;;
55190;SDS011;41070;50.360;18.742;2024-02-04T02:05:00;2.80;;;1.00;;
55190;SDS011;41070;50.360;18.742;2024-02-04T02:07:32;1.90;;;0.90;;
55190;SDS011;41070;50.360;18.742;2024-02-04T02:10:06;1.90;;;1.60;;
55190;SDS011;41070;50.360;18.742;2024-02-04T02:12:43;1.90;;;1.30;;
55190;SDS011;41070;50.360;18.742;2024-02-04T02:15:27;2.10;;;1.30;;
55190;SDS011;41070;50.360;18.742;2024-02-04T02:17:58;2.80;;;1.30;;
55190;SDS011;41070;50.360;18.742;2024-02-04T02:23:45;1.70;;;1.60;;
55190;SDS011;41070;50.360;18.742;2024-02-04T02:26:30;2.00;;;1.00;;
55190;SDS011;41070;50.360;18.742;2024-02-04T02:29:06;1.20;;;1.00;;
55190;SDS011;41070;50.360;18.742;2024-02-04T02:31:37;1.50;;;1.20;;
55190;SDS011;41070;50.360;18.742;2024-02-04T02:34:07;2.10;;;1.50;;
55190;SDS011;41070;50.360;18.742;2024-02-04T02:36:45;1.70;;;1.30;;
55190;SDS011;41070;50.360;18.742;2024-02-04T02:39:34;1.70;;;1.50;;
55190;SDS011;41070;50.360;18.742;2024-02-04T02:42:38;1.50;;;1.10;;
55190;SDS011;41070;50.360;18.742;2024-02-04T02:45:09;2.70;;;1.10;;
55190;SDS011;41070;50.360;18.742;2024-02-04T02:47:40;1.40;;;0.80;;
55190;SDS011;41070;50.360;18.742;2024-02-04T02:50:10;1.70;;;0.90;;
55190;SDS011;41070;50.360;18.742;2024-02-04T02:52:45;0.80;;;0.70;;
55190;SDS011;41070;50.360;18.742;2024-02-04T02:55:12;0.60;;;0.40;;
55190;SDS011;41070;50.360;18.742;2024-02-04T02:57:40;1.20;;;0.60;;
55190;SDS011;41070;50.360;18.742;2024-02-04T03:00:12;1.80;;;0.50;;
55190;SDS011;41070;50.360;18.742;2024-02-04T03:02:56;0.90;;;0.60;;
55190;SDS011;41070;50.360;18.742;2024-02-04T03:05:24;1.20;;;0.50;;
55190;SDS011;41070;50.360;18.742;2024-02-04T03:07:50;0.70;;;0.50;;
55190;SDS011;41070;50.360;18.742;2024-02-04T03:10:21;1.40;;;0.50;;
55190;SDS011;41070;50.360;18.742;2024-02-04T03:12:48;0.60;;;0.50;;
55190;SDS011;41070;50.360;18.742;2024-02-04T03:15:15;0.50;;;0.50;;
55190;SDS011;41070;50.360;18.742;2024-02-04T03:17:42;0.90;;;0.50;;
55190;SDS011;41070;50.360;18.742;2024-02-04T03:20:09;0.80;;;0.40;;
55190;SDS011;41070;50.360;18.742;2024-02-04T03:22:42;0.90;;;0.50;;
55190;SDS011;41070;50.360;18.742;2024-02-04T03:25:15;0.70;;;0.60;;
55190;SDS011;41070;50.360;18.742;2024-02-04T03:27:44;1.40;;;0.60;;
55190;SDS011;41070;50.360;18.742;2024-02-04T03:30:11;2.00;;;0.60;;
55190;SDS011;41070;50.360;18.742;2024-02-04T03:32:41;0.90;;;0.50;;
55190;SDS011;41070;50.360;18.742;2024-02-04T03:35:08;1.10;;;0.60;;
55190;SDS011;41070;50.360;18.742;2024-02-04T03:37:37;1.20;;;0.70;;
55190;SDS011;41070;50.360;18.742;2024-02-04T03:40:04;1.10;;;0.60;;
55190;SDS011;41070;50.360;18.742;2024-02-04T03:42:32;2.40;;;0.60;;
55190;SDS011;41070;50.360;18.742;2024-02-04T03:45:00;1.40;;;0.80;;
55190;SDS011;41070;50.360;18.742;2024-02-04T03:47:29;1.80;;;0.60;;
55190;SDS011;41070;50.360;18.742;2024-02-04T03:49:56;1.00;;;0.60;;
55190;SDS011;41070;50.360;18.742;2024-02-04T03:52:23;1.60;;;0.60;;
55190;SDS011;41070;50.360;18.742;2024-02-04T03:54:51;1.20;;;0.70;;
55190;SDS011;41070;50.360;18.742;2024-02-04T03:57:17;1.70;;;0.80;;
55190;SDS011;41070;50.360;18.742;2024-02-04T03:59:47;1.20;;;0.90;;
55190;SDS011;41070;50.360;18.742;2024-02-04T04:02:18;1.50;;;0.90;;
55190;SDS011;41070;50.360;18.742;2024-02-04T04:04:45;0.80;;;0.60;;
55190;SDS011;41070;50.360;18.742;2024-02-04T04:07:15;0.90;;;0.80;;
55190;SDS011;41070;50.360;18.742;2024-02-04T04:09:42;1.50;;;1.20;;
55190;SDS011;41070;50.360;18.742;2024-02-04T04:12:09;2.90;;;1.20;;
55190;SDS011;41070;50.360;18.742;2024-02-04T04:14:38;1.60;;;0.80;;
55190;SDS011;41070;50.360;18.742;2024-02-04T04:17:06;1.70;;;1.00;;
55190;SDS011;41070;50.360;18.742;2024-02-04T04:19:33;2.30;;;1.00;;
55190;SDS011;41070;50.360;18.742;2024-02-04T04:22:03;3.40;;;1.30;;
55190;SDS011;41070;50.360;18.742;2024-02-04T04:24:31;3.70;;;1.30;;
55190;SDS011;41070;50.360;18.742;2024-02-04T04:26:58;2.10;;;1.10;;
55190;SDS011;41070;50.360;18.742;2024-02-04T04:29:24;2.30;;;1.30;;
55190;SDS011;41070;50.360;18.742;2024-02-04T04:31:58;1.70;;;1.10;;
55190;SDS011;41070;50.360;18.742;2024-02-04T04:34:26;2.40;;;1.50;;
55190;SDS011;41070;50.360;18.742;2024-02-04T04:36:53;2.20;;;1.40;;
55190;SDS011;41070;50.360;18.742;2024-02-04T04:39:22;1.50;;;1.10;;
55190;SDS011;41070;50.360;18.742;2024-02-04T04:41:59;1.40;;;1.30;;
55190;SDS011;41070;50.360;18.742;2024-02-04T04:44:25;1.30;;;1.20;;
55190;SDS011;41070;50.360;18.742;2024-02-04T04:46:52;1.60;;;1.20;;
55190;SDS011;41070;50.360;18.742;2024-02-04T04:49:19;1.50;;;1.40;;
55190;SDS011;41070;50.360;18.742;2024-02-04T04:51:46;1.40;;;1.30;;
55190;SDS011;41070;50.360;18.742;2024-02-04T04:54:13;1.10;;;1.00;;
55190;SDS011;41070;50.360;18.742;2024-02-04T04:56:40;2.00;;;1.20;;
55190;SDS011;41070;50.360;18.742;2024-02-04T04:59:09;1.50;;;1.40;;
55190;SDS011;41070;50.360;18.742;2024-02-04T05:01:46;2.00;;;1.30;;
55190;SDS011;41070;50.360;18.742;2024-02-04T05:04:16;2.10;;;1.20;;
55190;SDS011;41070;50.360;18.742;2024-02-04T05:06:45;2.10;;;1.20;;
55190;SDS011;41070;50.360;18.742;2024-02-04T05:09:12;1.50;;;1.40;;
55190;SDS011;41070;50.360;18.742;2024-02-04T05:11:39;3.50;;;1.40;;
55190;SDS011;41070;50.360;18.742;2024-02-04T05:14:09;2.30;;;1.00;;
55190;SDS011;41070;50.360;18.742;2024-02-04T05:16:38;2.60;;;1.00;;
55190;SDS011;41070;50.360;18.742;2024-02-04T05:19:05;1.00;;;0.80;;
55190;SDS011;41070;50.360;18.742;2024-02-04T05:21:32;0.90;;;0.70;;
55190;SDS011;41070;50.360;18.742;2024-02-04T05:23:59;1.00;;;0.80;;
55190;SDS011;41070;50.360;18.742;2024-02-04T05:26:29;2.10;;;0.80;;
55190;SDS011;41070;50.360;18.742;2024-02-04T05:28:56;2.70;;;0.90;;
55190;SDS011;41070;50.360;18.742;2024-02-04T05:31:22;1.10;;;0.80;;
55190;SDS011;41070;50.360;18.742;2024-02-04T05:33:51;0.90;;;0.80;;
55190;SDS011;41070;50.360;18.742;2024-02-04T05:36:20;0.70;;;0.70;;
55190;SDS011;41070;50.360;18.742;2024-02-04T05:38:47;2.10;;;0.80;;
55190;SDS011;41070;50.360;18.742;2024-02-04T05:41:16;1.20;;;0.80;;
55190;SDS011;41070;50.360;18.742;2024-02-04T05:43:53;1.50;;;0.70;;
55190;SDS011;41070;50.360;18.742;2024-02-04T05:46:21;0.60;;;0.40;;
55190;SDS011;41070;50.360;18.742;2024-02-04T05:48:48;1.60;;;0.60;;
55190;SDS011;41070;50.360;18.742;2024-02-04T05:51:15;2.40;;;0.70;;
55190;SDS011;41070;50.360;18.742;2024-02-04T05:53:42;0.70;;;0.60;;
55190;SDS011;41070;50.360;18.742;2024-02-04T05:56:11;1.80;;;0.70;;
55190;SDS011;41070;50.360;18.742;2024-02-04T05:58:42;0.60;;;0.50;;
55190;SDS011;41070;50.360;18.742;2024-02-04T06:01:14;1.30;;;0.60;;
55190;SDS011;41070;50.360;18.742;2024-02-04T06:03:42;0.60;;;0.60;;
55190;SDS011;41070;50.360;18.742;2024-02-04T06:06:14;0.70;;;0.50;;
55190;SDS011;41070;50.360;18.742;2024-02-04T06:08:42;0.90;;;0.60;;
55190;SDS011;41070;50.360;18.742;2024-02-04T06:11:14;0.80;;;0.50;;
55190;SDS011;41070;50.360;18.742;2024-02-04T06:13:42;1.60;;;0.70;;
55190;SDS011;41070;50.360;18.742;2024-02-04T06:16:10;1.70;;;0.70;;
55190;SDS011;41070;50.360;18.742;2024-02-04T06:18:39;1.30;;;0.60;;
55190;SDS011;41070;50.360;18.742;2024-02-04T06:21:06;1.70;;;0.70;;
55190;SDS011;41070;50.360;18.742;2024-02-04T06:23:47;0.70;;;0.60;;
55190;SDS011;41070;50.360;18.742;2024-02-04T06:26:14;1.40;;;0.70;;
55190;SDS011;41070;50.360;18.742;2024-02-04T06:28:41;1.50;;;0.70;;
55190;SDS011;41070;50.360;18.742;2024-02-04T06:31:10;0.90;;;0.60;;
55190;SDS011;41070;50.360;18.742;2024-02-04T06:33:38;3.70;;;0.80;;
55190;SDS011;41070;50.360;18.742;2024-02-04T06:36:14;1.10;;;0.70;;
55190;SDS011;41070;50.360;18.742;2024-02-04T06:38:48;1.70;;;0.70;;
55190;SDS011;41070;50.360;18.742;2024-02-04T06:41:15;2.80;;;1.00;;
55190;SDS011;41070;50.360;18.742;2024-02-04T06:43:42;1.50;;;0.60;;
55190;SDS011;41070;50.360;18.742;2024-02-04T06:48:34;2.00;;;1.00;;
55190;SDS011;41070;50.360;18.742;2024-02-04T06:51:01;1.80;;;0.90;;
55190;SDS011;41070;50.360;18.742;2024-02-04T06:53:27;1.40;;;1.00;;
55190;SDS011;41070;50.360;18.742;2024-02-04T06:58:20;1.50;;;0.80;;
55190;SDS011;41070;50.360;18.742;2024-02-04T07:00:47;1.10;;;1.00;;
55190;SDS011;41070;50.360;18.742;2024-02-04T07:05:40;3.00;;;1.20;;
55190;SDS011;41070;50.360;18.742;2024-02-04T07:08:06;4.40;;;1.00;;
55190;SDS011;41070;50.360;18.742;2024-02-04T07:10:33;1.50;;;0.80;;
55190;SDS011;41070;50.360;18.742;2024-02-04T07:12:59;1.20;;;1.00;;
55190;SDS011;41070;50.360;18.742;2024-02-04T07:15:26;1.80;;;1.30;;
55190;SDS011;41070;50.360;18.742;2024-02-04T07:20:18;1.70;;;0.70;;
55190;SDS011;41070;50.360;18.742;2024-02-04T07:22:46;0.80;;;0.70;;
55190;SDS011;41070;50.360;18.742;2024-02-04T07:27:38;1.00;;;0.70;;
55190;SDS011;41070;50.360;18.742;2024-02-04T07:30:05;1.70;;;0.70;;
55190;SDS011;41070;50.360;18.742;2024-02-04T07:32:32;1.30;;;0.70;;
55190;SDS011;41070;50.360;18.742;2024-02-04T07:35:00;2.80;;;0.80;;
55190;SDS011;41070;50.360;18.742;2024-02-04T07:37:27;1.60;;;0.80;;
55190;SDS011;41070;50.360;18.742;2024-02-04T07:39:56;1.70;;;0.90;;
55190;SDS011;41070;50.360;18.742;2024-02-04T07:42:22;2.70;;;1.00;;
55190;SDS011;41070;50.360;18.742;2024-02-04T07:44:49;2.30;;;1.00;;
55190;SDS011;41070;50.360;18.742;2024-02-04T07:47:15;2.20;;;1.20;;
55190;SDS011;41070;50.360;18.742;2024-02-04T07:49:42;4.00;;;1.10;;
55190;SDS011;41070;50.360;18.742;2024-02-04T07:52:08;2.80;;;1.00;;
55190;SDS011;41070;50.360;18.742;2024-02-04T07:54:35;1.20;;;1.00;;
55190;SDS011;41070;50.360;18.742;2024-02-04T07:57:01;2.90;;;1.00;;
55190;SDS011;41070;50.360;18.742;2024-02-04T08:01:54;3.40;;;1.40;;
55190;SDS011;41070;50.360;18.742;2024-02-04T08:06:47;4.60;;;1.10;;
55190;SDS011;41070;50.360;18.742;2024-02-04T08:11:39;1.40;;;0.80;;
55190;SDS011;41070;50.360;18.742;2024-02-04T08:14:06;4.40;;;1.40;;
55190;SDS011;41070;50.360;18.742;2024-02-04T08:16:33;2.80;;;1.00;;
55190;SDS011;41070;50.360;18.742;2024-02-04T08:18:59;2.90;;;1.00;;
55190;SDS011;41070;50.360;18.742;2024-02-04T08:21:26;3.70;;;1.10;;
55190;SDS011;41070;50.360;18.742;2024-02-04T08:23:53;3.90;;;1.00;;
55190;SDS011;41070;50.360;18.742;2024-02-04T08:26:20;3.90;;;0.90;;
55190;SDS011;41070;50.360;18.742;2024-02-04T08:28:46;4.00;;;0.80;;
55190;SDS011;41070;50.360;18.742;2024-02-04T08:31:12;3.00;;;0.90;;
55190;SDS011;41070;50.360;18.742;2024-02-04T08:33:41;1.80;;;0.90;;
55190;SDS011;41070;50.360;18.742;2024-02-04T08:36:08;2.00;;;1.00;;
55190;SDS011;41070;50.360;18.742;2024-02-04T08:38:36;1.90;;;0.80;;
55190;SDS011;41070;50.360;18.742;2024-02-04T08:41:03;4.30;;;0.80;;
55190;SDS011;41070;50.360;18.742;2024-02-04T08:43:30;4.10;;;1.50;;
55190;SDS011;41070;50.360;18.742;2024-02-04T08:48:23;3.20;;;0.80;;
55190;SDS011;41070;50.360;18.742;2024-02-04T08:53:16;1.40;;;0.80;;
55190;SDS011;41070;50.360;18.742;2024-02-04T08:58:09;3.10;;;0.90;;
55190;SDS011;41070;50.360;18.742;2024-02-04T09:00:35;1.90;;;0.70;;
55190;SDS011;41070;50.360;18.742;2024-02-04T09:05:28;1.40;;;1.20;;
55190;SDS011;41070;50.360;18.742;2024-02-04T09:10:21;5.60;;;1.00;;
55190;SDS011;41070;50.360;18.742;2024-02-04T09:12:48;2.90;;;1.10;;
55190;SDS011;41070;50.360;18.742;2024-02-04T09:15:15;4.20;;;1.30;;
55190;SDS011;41070;50.360;18.742;2024-02-04T09:17:41;4.60;;;1.30;;
55190;SDS011;41070;50.360;18.742;2024-02-04T09:20:08;2.40;;;1.40;;
55190;SDS011;41070;50.360;18.742;2024-02-04T09:22:35;2.60;;;1.20;;
55190;SDS011;41070;50.360;18.742;2024-02-04T09:25:01;2.40;;;1.00;;
55190;SDS011;41070;50.360;18.742;2024-02-04T09:27:28;4.50;;;1.20;;
55190;SDS011;41070;50.360;18.742;2024-02-04T09:32:21;1.70;;;0.90;;
55190;SDS011;41070;50.360;18.742;2024-02-04T09:37:14;3.10;;;1.40;;
55190;SDS011;41070;50.360;18.742;2024-02-04T09:39:41;2.10;;;1.20;;
55190;SDS011;41070;50.360;18.742;2024-02-04T09:44:33;4.10;;;1.50;;
55190;SDS011;41070;50.360;18.742;2024-02-04T09:47:01;4.20;;;1.40;;
55190;SDS011;41070;50.360;18.742;2024-02-04T09:49:42;2.90;;;1.10;;
55190;SDS011;41070;50.360;18.742;2024-02-04T09:52:09;2.30;;;1.00;;
55190;SDS011;41070;50.360;18.742;2024-02-04T09:54:53;1.70;;;1.40;;
55190;SDS011;41070;50.360;18.742;2024-02-04T09:57:29;1.70;;;0.80;;
55190;SDS011;41070;50.360;18.742;2024-02-04T09:59:56;1.40;;;0.70;;
55190;SDS011;41070;50.360;18.742;2024-02-04T10:02:23;2.50;;;0.90;;
55190;SDS011;41070;50.360;18.742;2024-02-04T10:04:49;4.30;;;1.30;;
55190;SDS011;41070;50.360;18.742;2024-02-04T10:12:13;3.20;;;1.40;;
55190;SDS011;41070;50.360;18.742;2024-02-04T10:17:06;3.20;;;1.40;;
55190;SDS011;41070;50.360;18.742;2024-02-04T10:19:33;2.90;;;1.30;;
55190;SDS011;41070;50.360;18.742;2024-02-04T10:22:00;4.60;;;1.50;;
55190;SDS011;41070;50.360;18.742;2024-02-04T10:24:27;3.30;;;1.40;;
55190;SDS011;41070;50.360;18.742;2024-02-04T10:26:54;3.30;;;1.40;;
55190;SDS011;41070;50.360;18.742;2024-02-04T10:29:25;4.70;;;1.70;;
55190;SDS011;41070;50.360;18.742;2024-02-04T10:31:55;4.40;;;1.70;;
55190;SDS011;41070;50.360;18.742;2024-02-04T10:34:26;4.60;;;1.60;;
55190;SDS011;41070;50.360;18.742;2024-02-04T10:36:53;3.60;;;1.30;;
55190;SDS011;41070;50.360;18.742;2024-02-04T10:39:19;1.20;;;1.10;;
55190;SDS011;41070;50.360;18.742;2024-02-04T10:44:17;1.60;;;0.80;;
55190;SDS011;41070;50.360;18.742;2024-02-04T10:46:46;4.00;;;1.10;;
55190;SDS011;41070;50.360;18.742;2024-02-04T10:49:14;1.80;;;0.80;;
55190;SDS011;41070;50.360;18.742;2024-02-04T10:51:41;3.70;;;1.20;;
55190;SDS011;41070;50.360;18.742;2024-02-04T10:54:08;3.50;;;1.20;;
55190;SDS011;41070;50.360;18.742;2024-02-04T10:56:38;3.00;;;1.10;;
55190;SDS011;41070;50.360;18.742;2024-02-04T10:59:09;3.20;;;1.20;;
55190;SDS011;41070;50.360;18.742;2024-02-04T11:22:28;5.40;;;2.40;;
55190;SDS011;41070;50.360;18.742;2024-02-04T11:27:49;3.90;;;2.10;;
55190;SDS011;41070;50.360;18.742;2024-02-04T11:30:17;3.80;;;1.90;;
55190;SDS011;41070;50.360;18.742;2024-02-04T11:32:45;3.20;;;2.20;;
55190;SDS011;41070;50.360;18.742;2024-02-04T11:35:13;6.50;;;2.20;;
55190;SDS011;41070;50.360;18.742;2024-02-04T11:37:42;2.60;;;1.90;;
55190;SDS011;41070;50.360;18.742;2024-02-04T11:40:14;4.60;;;2.50;;
55190;SDS011;41070;50.360;18.742;2024-02-04T11:42:45;2.90;;;2.10;;
55190;SDS011;41070;50.360;18.742;2024-02-04T11:45:13;4.70;;;2.70;;
55190;SDS011;41070;50.360;18.742;2024-02-04T11:47:41;6.90;;;2.40;;
55190;SDS011;41070;50.360;18.742;2024-02-04T11:50:11;6.20;;;2.30;;
55190;SDS011;41070;50.360;18.742;2024-02-04T11:52:40;2.90;;;2.30;;
55190;SDS011;41070;50.360;18.742;2024-02-04T11:55:12;5.50;;;2.30;;
55190;SDS011;41070;50.360;18.742;2024-02-04T11:57:42;5.90;;;2.80;;
55190;SDS011;41070;50.360;18.742;2024-02-04T12:00:12;5.30;;;3.20;;
55190;SDS011;41070;50.360;18.742;2024-02-04T12:02:42;4.60;;;3.00;;
55190;SDS011;41070;50.360;18.742;2024-02-04T12:05:10;5.00;;;3.40;;
55190;SDS011;41070;50.360;18.742;2024-02-04T12:07:39;6.70;;;3.40;;
55190;SDS011;41070;50.360;18.742;2024-02-04T12:10:08;5.70;;;3.40;;
55190;SDS011;41070;50.360;18.742;2024-02-04T12:12:37;4.30;;;2.70;;
55190;SDS011;41070;50.360;18.742;2024-02-04T12:15:06;5.80;;;3.60;;
55190;SDS011;41070;50.360;18.742;2024-02-04T12:17:34;6.80;;;4.20;;
55190;SDS011;41070;50.360;18.742;2024-02-04T12:20:02;8.80;;;4.20;;
55190;SDS011;41070;50.360;18.742;2024-02-04T12:22:31;7.00;;;4.00;;
55190;SDS011;41070;50.360;18.742;2024-02-04T12:25:00;7.00;;;4.10;;
55190;SDS011;41070;50.360;18.742;2024-02-04T12:27:28;6.30;;;3.60;;
55190;SDS011;41070;50.360;18.742;2024-02-04T12:29:56;7.60;;;4.20;;
55190;SDS011;41070;50.360;18.742;2024-02-04T12:32:24;27.70;;;11.90;;
55190;SDS011;41070;50.360;18.742;2024-02-04T12:34:52;17.50;;;8.00;;
55190;SDS011;41070;50.360;18.742;2024-02-04T12:37:22;11.20;;;5.10;;
55190;SDS011;41070;50.360;18.742;2024-02-04T12:39:51;11.10;;;5.80;;
55190;SDS011;41070;50.360;18.742;2024-02-04T12:42:19;38.60;;;17.30;;
55190;SDS011;41070;50.360;18.742;2024-02-04T12:44:48;17.90;;;7.60;;
55190;SDS011;41070;50.360;18.742;2024-02-04T12:47:19;7.10;;;3.80;;
55190;SDS011;41070;50.360;18.742;2024-02-04T12:49:59;5.00;;;3.50;;
55190;SDS011;41070;50.360;18.742;2024-02-04T12:52:29;9.00;;;3.80;;
55190;SDS011;41070;50.360;18.742;2024-02-04T12:55:00;7.10;;;3.30;;
55190;SDS011;41070;50.360;18.742;2024-02-04T12:57:28;5.80;;;3.70;;
55190;SDS011;41070;50.360;18.742;2024-02-04T13:00:05;8.60;;;3.50;;
55190;SDS011;41070;50.360;18.742;2024-02-04T13:02:35;8.80;;;3.60;;
55190;SDS011;41070;50.360;18.742;2024-02-04T13:05:03;6.40;;;3.90;;
55190;SDS011;41070;50.360;18.742;2024-02-04T13:07:31;7.40;;;4.30;;
55190;SDS011;41070;50.360;18.742;2024-02-04T13:10:05;8.60;;;5.00;;
55190;SDS011;41070;50.360;18.742;2024-02-04T13:12:33;7.40;;;4.60;;
55190;SDS011;41070;50.360;18.742;2024-02-04T13:15:01;6.60;;;4.30;;
55190;SDS011;41070;50.360;18.742;2024-02-04T13:17:31;7.40;;;4.60;;
55190;SDS011;41070;50.360;18.742;2024-02-04T13:20:03;8.30;;;5.40;;
55190;SDS011;41070;50.360;18.742;2024-02-04T13:22:35;6.90;;;4.70;;
55190;SDS011;41070;50.360;18.742;2024-02-04T13:25:05;8.10;;;5.00;;
55190;SDS011;41070;50.360;18.742;2024-02-04T13:27:33;7.60;;;3.70;;
55190;SDS011;41070;50.360;18.742;2024-02-04T13:30:01;6.90;;;4.60;;
55190;SDS011;41070;50.360;18.742;2024-02-04T13:32:30;5.20;;;3.50;;
55190;SDS011;41070;50.360;18.742;2024-02-04T13:34:58;5.40;;;3.10;;
55190;SDS011;41070;50.360;18.742;2024-02-04T13:37:26;5.30;;;3.40;;
55190;SDS011;41070;50.360;18.742;2024-02-04T13:39:54;4.40;;;2.90;;
55190;SDS011;41070;50.360;18.742;2024-02-04T13:42:21;4.70;;;3.40;;
55190;SDS011;41070;50.360;18.742;2024-02-04T13:44:49;4.10;;;2.80;;
55190;SDS011;41070;50.360;18.742;2024-02-04T13:47:17;6.10;;;3.20;;
55190;SDS011;41070;50.360;18.742;2024-02-04T13:49:45;6.60;;;3.40;;
55190;SDS011;41070;50.360;18.742;2024-02-04T13:52:13;4.50;;;2.70;;
55190;SDS011;41070;50.360;18.742;2024-02-04T13:54:40;6.00;;;2.80;;
55190;SDS011;41070;50.360;18.742;2024-02-04T13:57:09;6.40;;;2.80;;
55190;SDS011;41070;50.360;18.742;2024-02-04T13:59:37;5.30;;;3.00;;
55190;SDS011;41070;50.360;18.742;2024-02-04T14:02:05;4.80;;;2.80;;
55190;SDS011;41070;50.360;18.742;2024-02-04T14:04:45;4.90;;;2.60;;
55190;SDS011;41070;50.360;18.742;2024-02-04T14:07:13;4.60;;;2.80;;
55190;SDS011;41070;50.360;18.742;2024-02-04T14:09:41;5.90;;;3.30;;
55190;SDS011;41070;50.360;18.742;2024-02-04T14:12:09;4.80;;;2.90;;
55190;SDS011;41070;50.360;18.742;2024-02-04T14:14:37;4.90;;;2.70;;
55190;SDS011;41070;50.360;18.742;2024-02-04T14:17:05;4.70;;;2.60;;
55190;SDS011;41070;50.360;18.742;2024-02-04T14:19:33;3.90;;;2.20;;
55190;SDS011;41070;50.360;18.742;2024-02-04T14:22:01;4.70;;;3.10;;
55190;SDS011;41070;50.360;18.742;2024-02-04T14:24:29;4.30;;;2.30;;
55190;SDS011;41070;50.360;18.742;2024-02-04T14:26:57;3.00;;;2.50;;
55190;SDS011;41070;50.360;18.742;2024-02-04T14:29:26;4.20;;;3.10;;
55190;SDS011;41070;50.360;18.742;2024-02-04T14:31:54;3.80;;;1.90;;
55190;SDS011;41070;50.360;18.742;2024-02-04T14:34:22;5.10;;;2.50;;
55190;SDS011;41070;50.360;18.742;2024-02-04T14:36:50;3.70;;;2.40;;
55190;SDS011;41070;50.360;18.742;2024-02-04T14:39:18;3.90;;;2.40;;
55190;SDS011;41070;50.360;18.742;2024-02-04T14:41:45;4.80;;;2.40;;
55190;SDS011;41070;50.360;18.742;2024-02-04T14:44:13;4.40;;;2.50;;
55190;SDS011;41070;50.360;18.742;2024-02-04T14:46:42;2.90;;;1.60;;
55190;SDS011;41070;50.360;18.742;2024-02-04T14:49:12;3.00;;;1.80;;
55190;SDS011;41070;50.360;18.742;2024-02-04T14:51:40;4.40;;;1.90;;
55190;SDS011;41070;50.360;18.742;2024-02-04T14:54:09;3.40;;;1.80;;
55190;SDS011;41070;50.360;18.742;2024-02-04T14:56:38;2.40;;;1.50;;
55190;SDS011;41070;50.360;18.742;2024-02-04T14:59:10;3.90;;;2.00;;
55190;SDS011;41070;50.360;18.742;2024-02-04T15:01:38;3.00;;;1.60;;
55190;SDS011;41070;50.360;18.742;2024-02-04T15:04:06;3.20;;;1.90;;
55190;SDS011;41070;50.360;18.742;2024-02-04T15:06:34;3.10;;;1.50;;
55190;SDS011;41070;50.360;18.742;2024-02-04T15:09:02;4.40;;;2.10;;
55190;SDS011;41070;50.360;18.742;2024-02-04T15:11:30;2.10;;;1.50;;
55190;SDS011;41070;50.360;18.742;2024-02-04T15:14:00;3.70;;;1.80;;
55190;SDS011;41070;50.360;18.742;2024-02-04T15:16:28;4.70;;;1.60;;
55190;SDS011;41070;50.360;18.742;2024-02-04T15:18:56;3.50;;;1.70;;
55190;SDS011;41070;50.360;18.742;2024-02-04T15:21:25;2.50;;;1.70;;
55190;SDS011;41070;50.360;18.742;2024-02-04T15:23:53;2.90;;;1.50;;
55190;SDS011;41070;50.360;18.742;2024-02-04T15:26:21;5.00;;;1.90;;
55190;SDS011;41070;50.360;18.742;2024-02-04T15:28:51;5.30;;;2.20;;
55190;SDS011;41070;50.360;18.742;2024-02-04T15:31:22;2.90;;;1.30;;
55190;SDS011;41070;50.360;18.742;2024-02-04T15:33:50;3.40;;;1.80;;
55190;SDS011;41070;50.360;18.742;2024-02-04T15:36:19;3.00;;;1.70;;
55190;SDS011;41070;50.360;18.742;2024-02-04T15:38:50;3.60;;;1.60;;
55190;SDS011;41070;50.360;18.742;2024-02-04T15:41:17;3.90;;;1.60;;
55190;SDS011;41070;50.360;18.742;2024-02-04T15:43:45;3.70;;;2.00;;
55190;SDS011;41070;50.360;18.742;2024-02-04T15:46:13;3.00;;;1.80;;
55190;SDS011;41070;50.360;18.742;2024-02-04T15:48:41;3.90;;;2.00;;
55190;SDS011;41070;50.360;18.742;2024-02-04T15:51:14;5.10;;;2.30;;
55190;SDS011;41070;50.360;18.742;2024-02-04T15:53:42;4.50;;;2.80;;
55190;SDS011;41070;50.360;18.742;2024-02-04T15:56:10;3.10;;;2.60;;
55190;SDS011;41070;50.360;18.742;2024-02-04T15:58:38;5.10;;;2.50;;
55190;SDS011;41070;50.360;18.742;2024-02-04T16:01:13;5.20;;;2.80;;
55190;SDS011;41070;50.360;18.742;2024-02-04T16:03:42;4.80;;;2.50;;
55190;SDS011;41070;50.360;18.742;2024-02-04T16:06:10;4.10;;;2.10;;
55190;SDS011;41070;50.360;18.742;2024-02-04T16:08:39;3.70;;;2.20;;
55190;SDS011;41070;50.360;18.742;2024-02-04T16:11:13;2.00;;;1.70;;
55190;SDS011;41070;50.360;18.742;2024-02-04T16:13:45;2.70;;;1.70;;
55190;SDS011;41070;50.360;18.742;2024-02-04T16:16:18;5.10;;;3.30;;
55190;SDS011;41070;50.360;18.742;2024-02-04T16:18:49;14.20;;;9.10;;
55190;SDS011;41070;50.360;18.742;2024-02-04T16:21:17;4.20;;;2.60;;
55190;SDS011;41070;50.360;18.742;2024-02-04T16:23:45;3.20;;;1.90;;
55190;SDS011;41070;50.360;18.742;2024-02-04T16:26:13;6.30;;;4.40;;
55190;SDS011;41070;50.360;18.742;2024-02-04T16:28:41;29.10;;;15.70;;
55190;SDS011;41070;50.360;18.742;2024-02-04T16:31:09;6.20;;;3.20;;
55190;SDS011;41070;50.360;18.742;2024-02-04T16:33:37;4.00;;;2.10;;
55190;SDS011;41070;50.360;18.742;2024-02-04T16:36:05;4.30;;;2.40;;